Time;durP1;ratioP1;P1;durP2;ratioP2;P2;SDS_P1;SDS_P2;PMS_P1;PMS_P2;Temp;Humidity;BMP_temperature;BMP_pressure;BME280_temperature;BME280_humidity;BME280_pressure;Samples;Min_cycle;Max_cycle;Signal;HPM_P1;HPM_P2
2022/01/31 00:01:33;;;;;;;11.68;4.28;;;;;;;2.12;82.50;100258.97;12236980;19;20474;-82
2022/01/31 00:05:35;;;;;;;15.10;4.80;;;;;;;2.19;81.88;100263.47;12236558;19;20065;-83
2022/01/31 00:09:38;;;;;;;13.10;4.47;;;;;;;2.25;82.51;100242.84;12243396;19;20020;-82
2022/01/31 00:13:44;;;;;;;15.93;4.88;;;;;;;2.27;82.44;100244.38;12244658;19;20057;-82
2022/01/31 00:17:45;;;;;;;13.90;5.45;;;;;;;2.23;81.99;100229.47;12251427;19;20020;-83
2022/01/31 00:21:47;;;;;;;12.00;5.43;;;;;;;2.27;82.38;100214.44;12242494;19;20018;-83
2022/01/31 00:25:49;;;;;;;14.95;4.75;;;;;;;2.20;82.77;100191.78;12241283;19;20480;-82
2022/01/31 00:29:50;;;;;;;12.98;4.50;;;;;;;2.19;83.45;100160.16;12257725;19;20017;-82
2022/01/31 00:33:52;;;;;;;14.23;4.47;;;;;;;2.16;83.72;100133.34;12247736;19;20022;-82
2022/01/31 00:37:54;;;;;;;20.20;5.43;;;;;;;2.18;83.70;100123.13;12246718;19;20010;-81
2022/01/31 00:41:56;;;;;;;14.20;4.55;;;;;;;2.19;83.71;100119.38;12242141;19;20007;-82
2022/01/31 00:45:59;;;;;;;9.73;3.28;;;;;;;2.22;83.98;100112.72;12229368;19;20361;-82
2022/01/31 00:50:07;;;;;;;12.68;4.88;;;;;;;2.18;84.37;100090.50;12232942;19;20476;-82
2022/01/31 00:54:08;;;;;;;13.23;4.95;;;;;;;2.14;84.88;100063.88;12232624;19;20374;-82
2022/01/31 00:58:10;;;;;;;13.15;5.55;;;;;;;2.18;84.54;100047.00;12244392;19;20021;-82
2022/01/31 01:02:11;;;;;;;13.32;4.32;;;;;;;2.19;84.83;99999.75;12238963;19;20062;-82
2022/01/31 01:06:13;;;;;;;12.25;4.25;;;;;;;2.13;85.35;100014.09;12237677;19;20031;-81
2022/01/31 01:10:17;;;;;;;17.23;4.50;;;;;;;2.22;84.94;100006.69;12246223;19;20017;-82
2022/01/31 01:14:18;;;;;;;16.48;4.38;;;;;;;2.15;85.27;99971.25;12238905;19;20035;-81
2022/01/31 01:18:20;;;;;;;21.00;4.45;;;;;;;2.16;84.83;99937.59;12237729;19;20010;-81
2022/01/31 01:22:22;;;;;;;14.45;4.72;;;;;;;2.17;85.04;99933.00;12241136;19;20013;-81
2022/01/31 01:26:23;;;;;;;18.83;4.88;;;;;;;2.14;85.45;99934.25;12236293;19;20461;-82
2022/01/31 01:30:29;;;;;;;16.92;4.38;;;;;;;2.18;85.43;99915.66;12247002;19;20017;-81
2022/01/31 01:34:33;;;;;;;12.98;4.15;;;;;;;2.26;84.60;99893.78;12234280;19;20024;-81
2022/01/31 01:38:35;;;;;;;19.25;4.35;;;;;;;2.28;84.64;99873.50;12237517;19;20027;-82
2022/01/31 01:42:41;;;;;;;11.23;3.90;;;;;;;2.26;84.57;99847.53;12227833;19;20019;-81
2022/01/31 01:46:43;;;;;;;10.63;3.45;;;;;;;2.27;84.80;99827.50;12235850;19;20026;-82
2022/01/31 01:50:45;;;;;;;16.58;3.85;;;;;;;2.22;85.19;99814.47;12242373;19;20022;-82
2022/01/31 01:54:48;;;;;;;8.70;3.47;;;;;;;2.23;85.08;99804.44;12246660;19;20006;-82
2022/01/31 01:58:50;;;;;;;12.32;4.03;;;;;;;2.30;84.68;99791.75;12246154;19;20279;-82
2022/01/31 02:02:54;;;;;;;10.07;4.40;;;;;;;2.33;84.61;99779.66;12252362;19;20045;-79
2022/01/31 02:06:56;;;;;;;12.45;4.00;;;;;;;2.33;84.74;99753.28;12243935;19;20007;-81
2022/01/31 02:10:57;;;;;;;12.13;4.32;;;;;;;2.41;84.48;99755.88;12243657;19;20017;-81
2022/01/31 02:15:13;;;;;;;14.68;4.72;;;;;;;2.45;84.67;99743.53;12238463;19;20006;-81
2022/01/31 02:19:40;;;;;;;17.52;4.13;;;;;;;2.48;84.55;99723.28;12260202;19;20039;-82
2022/01/31 02:24:13;;;;;;;13.13;4.55;;;;;;;2.54;84.36;99706.16;12243083;19;20035;-82
2022/01/31 02:28:26;;;;;;;14.98;4.70;;;;;;;2.59;84.08;99686.50;12254135;19;20480;-81
2022/01/31 02:32:28;;;;;;;15.82;3.97;;;;;;;2.62;83.72;99665.19;12243668;19;20006;-81
2022/01/31 02:36:33;;;;;;;11.88;3.90;;;;;;;2.61;83.75;99636.28;12253664;19;20051;-82
2022/01/31 02:40:35;;;;;;;10.98;3.65;;;;;;;2.69;83.33;99627.97;12246654;19;20019;-81
2022/01/31 02:44:40;;;;;;;12.38;3.40;;;;;;;2.68;83.32;99612.69;12250102;19;20006;-82
2022/01/31 02:48:48;;;;;;;8.85;3.13;;;;;;;2.72;83.30;99616.66;12264597;19;20011;-81
2022/01/31 02:52:59;;;;;;;14.30;3.78;;;;;;;2.79;83.22;99621.28;12279455;19;20021;-81
2022/01/31 02:57:02;;;;;;;11.73;3.83;;;;;;;2.87;82.46;99629.28;12266956;19;20019;-83
2022/01/31 03:01:05;;;;;;;16.70;3.60;;;;;;;2.85;82.85;99643.06;12256619;19;20045;-82
2022/01/31 03:05:16;;;;;;;16.77;3.93;;;;;;;2.80;82.87;99601.22;12261146;19;20014;-83
2022/01/31 03:09:18;;;;;;;15.35;4.32;;;;;;;2.83;82.89;99609.81;12266101;19;20279;-83
2022/01/31 03:13:24;;;;;;;14.05;3.83;;;;;;;2.79;82.96;99591.34;12262851;19;20074;-82
2022/01/31 03:17:26;;;;;;;14.77;3.40;;;;;;;2.80;83.09;99593.88;12260540;19;20022;-83
2022/01/31 03:21:28;;;;;;;14.93;3.60;;;;;;;2.75;83.38;99580.06;12258285;19;20048;-82
2022/01/31 03:25:30;;;;;;;15.88;3.90;;;;;;;2.74;83.46;99565.63;12251870;19;20009;-83
2022/01/31 03:29:32;;;;;;;13.32;3.40;;;;;;;2.77;83.44;99560.78;12254663;19;20003;-82
2022/01/31 03:33:34;;;;;;;14.35;4.20;;;;;;;2.72;83.59;99542.38;12242338;19;20014;-82
2022/01/31 03:37:36;;;;;;;10.43;3.70;;;;;;;2.70;84.10;99539.84;12250736;19;20022;-82
2022/01/31 03:41:38;;;;;;;13.53;3.57;;;;;;;2.69;84.25;99504.69;12236215;19;20078;-82
2022/01/31 03:45:40;;;;;;;12.40;3.93;;;;;;;2.61;84.79;99491.28;12243761;19;20007;-82
2022/01/31 03:49:50;;;;;;;14.20;4.47;;;;;;;2.68;84.49;99460.34;12248287;19;20019;-81
2022/01/31 03:53:52;;;;;;;;;;;;;;;2.68;84.52;99430.41;12241422;19;20006;-81
2022/01/31 03:57:55;;;;;;;9.95;3.60;;;;;;;2.68;84.95;99405.09;12249757;19;19914;-81
2022/01/31 04:02:06;;;;;;;12.88;3.38;;;;;;;2.74;84.71;99398.81;12244075;19;20338;-83
2022/01/31 04:06:08;;;;;;;13.30;3.67;;;;;;;2.81;84.67;99377.88;12252999;19;20010;-82
2022/01/31 04:10:10;;;;;;;14.00;2.80;;;;;;;2.84;84.62;99379.34;12251484;19;20469;-82
2022/01/31 04:14:12;;;;;;;13.07;3.92;;;;;;;2.87;84.68;99341.66;12242854;19;20018;-82
2022/01/31 04:18:14;;;;;;;7.83;3.37;;;;;;;2.91;84.44;99325.72;12243150;19;20006;-83
2022/01/31 04:22:19;;;;;;;8.80;3.40;;;;;;;2.97;84.60;99316.72;12247459;19;20507;-82
2022/01/31 04:26:21;;;;;;;16.48;4.03;;;;;;;2.98;84.53;99312.97;12244158;19;19999;-83
2022/01/31 04:30:26;;;;;;;11.10;3.78;;;;;;;3.05;84.38;99310.22;12243783;19;20023;-82
2022/01/31 04:34:30;;;;;;;12.35;4.25;;;;;;;3.04;84.67;99292.22;12246626;19;20014;-82
2022/01/31 04:38:32;;;;;;;15.10;3.88;;;;;;;3.04;85.02;99293.06;12249257;19;20014;-83
2022/01/31 04:42:34;;;;;;;17.07;4.03;;;;;;;3.05;85.08;99285.72;12250383;19;20018;-83
2022/01/31 04:46:36;;;;;;;16.65;4.75;;;;;;;2.97;86.11;99259.56;12250502;19;20025;-83
2022/01/31 04:50:38;;;;;;;11.83;4.57;;;;;;;2.97;86.68;99246.81;12253064;19;20039;-84
2022/01/31 04:54:41;;;;;;;17.35;4.25;;;;;;;3.00;86.73;99221.03;12243165;19;20011;-84
2022/01/31 04:58:43;;;;;;;16.00;4.07;;;;;;;3.03;86.81;99223.31;12265310;19;20712;-82
2022/01/31 05:02:45;;;;;;;16.77;4.45;;;;;;;3.00;87.35;99199.25;12242162;19;20013;-84
2022/01/31 05:06:48;;;;;;;13.45;4.25;;;;;;;2.99;88.30;99194.88;12232377;19;20567;-81
2022/01/31 05:10:50;;;;;;;;;;;;;;;2.97;89.87;99195.09;12235926;19;20014;-82
2022/01/31 05:14:51;;;;;;;16.27;4.75;;;;;;;2.89;91.70;99189.88;12237660;19;19920;-82
2022/01/31 05:18:53;;;;;;;13.20;5.30;;;;;;;2.78;92.81;99189.72;12239187;19;20019;-83
2022/01/31 05:22:55;;;;;;;13.23;3.78;;;;;;;2.62;95.32;99191.03;12227165;19;20011;-83
2022/01/31 05:26:56;;;;;;;20.65;5.90;;;;;;;2.46;97.20;99173.28;12251894;19;20021;-83
2022/01/31 05:30:58;;;;;;;16.40;5.38;;;;;;;2.43;98.45;99174.53;12240480;19;20349;-81
2022/01/31 05:35:01;;;;;;;24.35;5.40;;;;;;;2.39;100.00;99169.75;12243738;19;20014;-80
2022/01/31 05:39:02;;;;;;;;;;;;;;;2.47;100.00;99156.75;12232353;19;20492;-79
2022/01/31 05:43:04;;;;;;;17.00;5.65;;;;;;;2.53;100.00;99160.50;12236491;19;20438;-80
2022/01/31 05:47:06;;;;;;;19.88;5.70;;;;;;;2.60;100.00;99153.16;12234860;19;20021;-80
2022/01/31 05:51:22;;;;;;;19.17;5.95;;;;;;;2.54;100.00;99142.31;12244222;19;20018;-79
2022/01/31 05:55:24;;;;;;;12.88;5.20;;;;;;;2.57;100.00;99152.75;12240674;19;20018;-79
2022/01/31 05:59:26;;;;;;;22.08;6.35;;;;;;;2.64;100.00;99138.06;12249136;19;20021;-81
2022/01/31 06:03:27;;;;;;;9.60;4.53;;;;;;;2.67;100.00;99159.38;12247373;19;20369;-81
2022/01/31 06:07:29;;;;;;;11.23;4.97;;;;;;;2.72;100.00;99164.19;12241679;19;20784;-82
2022/01/31 06:11:33;;;;;;;15.45;4.90;;;;;;;2.69;100.00;99149.13;12252329;19;20014;-81
2022/01/31 06:15:35;;;;;;;15.95;5.90;;;;;;;2.67;100.00;99143.06;12240231;19;20355;-80
2022/01/31 06:19:37;;;;;;;19.90;6.07;;;;;;;2.67;100.00;99145.78;12251829;19;20007;-81
2022/01/31 06:23:40;;;;;;;15.85;3.83;;;;;;;2.71;100.00;99157.09;12247239;19;20016;-81
2022/01/31 06:27:41;;;;;;;10.23;4.55;;;;;;;2.74;100.00;99149.34;12234126;19;20385;-80
2022/01/31 06:31:43;;;;;;;13.95;5.03;;;;;;;2.70;100.00;99149.97;12221091;19;20656;-79
2022/01/31 06:35:47;;;;;;;12.00;6.10;;;;;;;2.74;100.00;99152.06;12248967;19;20102;-80
2022/01/31 06:39:49;;;;;;;14.20;4.50;;;;;;;2.72;100.00;99148.72;12205003;19;20007;-81
2022/01/31 06:43:51;;;;;;;10.07;3.38;;;;;;;2.65;100.00;99128.03;12249296;19;20109;-80
2022/01/31 06:47:53;;;;;;;10.10;4.65;;;;;;;2.63;100.00;99116.53;12244396;19;20011;-80
2022/01/31 06:51:55;;;;;;;11.30;3.95;;;;;;;2.66;100.00;99135.97;12250055;19;20072;-80
2022/01/31 06:55:57;;;;;;;9.27;3.97;;;;;;;2.70;100.00;99158.97;12251199;19;20511;-81
2022/01/31 07:00:00;;;;;;;14.70;5.45;;;;;;;2.70;100.00;99158.97;12243755;19;20002;-81
2022/01/31 07:04:02;;;;;;;11.25;4.28;;;;;;;2.71;100.00;99147.06;12241056;19;20010;-80
2022/01/31 07:08:04;;;;;;;9.18;3.88;;;;;;;2.74;100.00;99143.06;12250028;19;20018;-80
2022/01/31 07:12:09;;;;;;;13.00;4.00;;;;;;;2.79;100.00;99153.28;12250702;19;20010;-81
2022/01/31 07:16:11;;;;;;;5.38;2.97;;;;;;;2.83;100.00;99155.38;12246453;19;20470;-80
2022/01/31 07:20:34;;;;;;;5.90;2.88;;;;;;;2.84;100.00;99154.31;12246512;19;20006;-80
2022/01/31 07:24:48;;;;;;;8.88;3.03;;;;;;;2.87;100.00;99140.28;12238974;19;20021;-80
2022/01/31 07:28:49;;;;;;;9.02;2.85;;;;;;;2.84;100.00;99145.31;12245621;19;20060;-80
2022/01/31 07:32:51;;;;;;;6.72;3.03;;;;;;;2.89;100.00;99138.19;12245894;19;20401;-80
2022/01/31 07:36:53;;;;;;;9.77;3.00;;;;;;;2.93;100.00;99144.03;12249422;19;20074;-81
2022/01/31 07:40:57;;;;;;;4.57;2.53;;;;;;;2.89;100.00;99145.50;12242574;19;20014;-79
2022/01/31 07:44:59;;;;;;;7.03;2.15;;;;;;;2.83;100.00;99147.22;12208630;19;20049;-80
2022/01/31 07:49:11;;;;;;;7.68;2.95;;;;;;;2.83;100.00;99146.38;12230693;19;20104;-80
2022/01/31 07:53:12;;;;;;;11.15;3.13;;;;;;;2.95;100.00;99141.94;12243999;19;20214;-80
2022/01/31 07:57:16;;;;;;;7.20;2.88;;;;;;;3.13;100.00;99146.66;12242796;19;20042;-80
2022/01/31 08:01:33;;;;;;;9.70;3.17;;;;;;;3.35;100.00;99126.19;12242511;19;20015;-79
2022/01/31 08:05:35;;;;;;;5.75;1.90;;;;;;;3.47;100.00;99117.31;12240746;19;20030;-81
2022/01/31 08:09:37;;;;;;;6.60;2.17;;;;;;;3.46;100.00;99116.47;12244421;19;20014;-80
2022/01/31 08:13:38;;;;;;;8.68;2.30;;;;;;;3.61;100.00;99108.81;12242262;19;20014;-80
2022/01/31 08:17:40;;;;;;;8.38;2.42;;;;;;;3.68;100.00;99118.81;12252709;19;20677;-80
2022/01/31 08:21:42;;;;;;;5.55;2.40;;;;;;;3.72;100.00;99109.13;12244431;19;20014;-81
2022/01/31 08:25:48;;;;;;;4.35;2.22;;;;;;;3.64;100.00;99105.66;12252127;19;20015;-81
2022/01/31 08:29:55;;;;;;;4.85;3.00;;;;;;;3.70;100.00;99111.28;12249661;19;20549;-81
2022/01/31 08:34:22;;;;;;;9.43;3.73;;;;;;;3.72;100.00;99107.28;12242336;19;20035;-81
2022/01/31 08:38:24;;;;;;;7.27;3.67;;;;;;;3.67;100.00;99089.91;12245116;19;20060;-81
2022/01/31 08:42:28;;;;;;;6.75;3.45;;;;;;;3.58;100.00;99075.75;12233403;19;20082;-81
2022/01/31 08:46:30;;;;;;;8.02;2.88;;;;;;;3.49;100.00;99077.91;12249025;19;20043;-81
2022/01/31 08:50:32;;;;;;;8.67;4.10;;;;;;;3.57;100.00;99085.81;12240011;19;20045;-80
2022/01/31 08:54:34;;;;;;;8.38;3.60;;;;;;;3.83;100.00;99078.44;12237999;19;20965;-80
2022/01/31 08:58:41;;;;;;;9.77;2.78;;;;;;;3.94;100.00;99077.72;12247305;19;20049;-79
2022/01/31 09:02:52;;;;;;;9.23;3.05;;;;;;;4.00;100.00;99070.53;12252030;19;20031;-81
2022/01/31 09:06:54;;;;;;;6.43;2.97;;;;;;;3.93;100.00;99067.88;12248605;19;20017;-81
2022/01/31 09:10:56;;;;;;;7.68;2.47;;;;;;;3.95;100.00;99054.00;12256622;19;20042;-80
2022/01/31 09:14:58;;;;;;;4.67;2.37;;;;;;;3.91;100.00;99053.63;12255454;19;20010;-80
2022/01/31 09:18:59;;;;;;;5.07;1.98;;;;;;;3.94;100.00;99049.63;12252675;19;20437;-80
2022/01/31 09:23:02;;;;;;;3.05;1.70;;;;;;;4.04;100.00;99053.47;12248755;19;20006;-80
2022/01/31 09:27:05;;;;;;;4.20;1.90;;;;;;;4.17;99.55;99043.50;12250849;19;20025;-80
2022/01/31 09:31:07;;;;;;;3.88;1.15;;;;;;;4.29;98.28;99055.31;12240316;19;20006;-81
2022/01/31 09:35:09;;;;;;;5.25;1.75;;;;;;;4.39;97.26;99041.97;12249108;19;20424;-82
2022/01/31 09:39:10;;;;;;;3.33;1.60;;;;;;;4.47;96.99;99049.03;12249089;19;20092;-84
2022/01/31 09:48:31;;;;;;;2.42;1.30;;;;;;;4.65;95.16;99050.91;12240269;19;20015;-81
2022/01/31 09:51:46;;;;;;;5.07;1.40;;;;;;;4.72;94.98;99047.00;12252149;19;20011;-82
2022/01/31 09:55:48;;;;;;;3.08;1.00;;;;;;;4.83;93.21;99053.59;12244103;19;20521;-81
2022/01/31 09:59:50;;;;;;;4.15;1.02;;;;;;;4.90;93.28;99046.13;12246638;19;20069;-79
2022/01/31 10:03:56;;;;;;;3.53;1.40;;;;;;;5.00;92.29;99037.41;12236435;19;20114;-79
2022/01/31 10:08:09;;;;;;;6.30;1.42;;;;;;;4.94;91.67;99032.88;12243034;19;20035;-80
2022/01/31 10:16:43;;;;;;;4.78;1.00;;;;;;;5.10;90.52;99039.56;12246661;19;20017;-81
2022/01/31 10:21:05;;;;;;;4.13;1.33;;;;;;;5.12;90.38;99051.91;12236689;19;20027;-82
2022/01/31 10:25:10;;;;;;;4.40;1.27;;;;;;;5.12;91.00;99035.53;12238329;19;20006;-81
2022/01/31 10:29:32;;;;;;;4.43;1.30;;;;;;;5.16;90.24;99039.44;12238857;19;20007;-81
2022/01/31 10:33:35;;;;;;;4.70;1.30;;;;;;;5.15;90.13;99026.03;12242337;19;20002;-77
2022/01/31 10:37:40;;;;;;;3.65;1.77;;;;;;;5.16;89.73;99023.06;12224306;19;20031;-77
2022/01/31 10:46:22;;;;;;;6.80;2.78;;;;;;;5.28;88.62;99012.16;12234460;19;20423;-79
2022/01/31 10:50:45;;;;;;;2.78;0.80;;;;;;;5.33;88.95;99028.69;12253775;19;20015;-80
2022/01/31 10:54:51;;;;;;;5.40;1.60;;;;;;;5.51;88.28;99024.19;12247295;19;20508;-78
2022/01/31 10:59:14;;;;;;;4.50;1.63;;;;;;;5.61;88.16;99024.44;12233812;19;20090;-78
2022/01/31 11:03:31;;;;;;;8.57;1.35;;;;;;;5.82;84.75;99029.31;12237603;19;20485;-78
2022/01/31 11:07:33;;;;;;;4.18;1.70;;;;;;;5.98;84.07;99040.63;12228755;19;20017;-78
2022/01/31 11:11:41;;;;;;;2.42;1.25;;;;;;;6.03;81.76;99035.28;12238837;19;20032;-77
2022/01/31 11:15:43;;;;;;;1.60;0.82;;;;;;;5.87;81.81;99040.38;12233885;19;20034;-78
2022/01/31 11:19:48;;;;;;;;;;;;;;;5.93;82.19;99019.47;12236335;19;20006;-79
2022/01/31 11:23:52;;;;;;;2.33;0.60;;;;;;;5.93;81.62;99031.25;12227021;19;19907;-81
2022/01/31 11:27:58;;;;;;;2.43;0.80;;;;;;;5.97;81.89;99023.38;12230530;19;20013;-79
2022/01/31 11:32:01;;;;;;;3.63;0.60;;;;;;;5.94;81.87;99019.22;12233887;19;20299;-80
2022/01/31 11:36:03;;;;;;;2.67;0.60;;;;;;;5.94;80.73;99011.00;12235217;19;20017;-79
2022/01/31 11:40:09;;;;;;;0.57;0.40;;;;;;;5.96;81.11;99012.69;12240030;19;20046;-78
2022/01/31 11:44:19;;;;;;;3.30;0.50;;;;;;;5.90;81.44;99028.94;12227485;19;20002;-78
2022/01/31 11:48:24;;;;;;;1.60;0.50;;;;;;;5.76;82.38;99043.94;12233028;19;20033;-78
2022/01/31 11:52:31;;;;;;;2.42;0.45;;;;;;;5.66;83.10;99008.16;12224377;19;20035;-78
2022/01/31 11:56:44;;;;;;;2.17;0.70;;;;;;;5.57;83.33;99028.72;12228951;19;20014;-78
2022/01/31 12:00:47;;;;;;;2.45;0.50;;;;;;;5.59;83.46;99034.75;12228751;19;20520;-78
2022/01/31 12:04:51;;;;;;;2.38;1.20;;;;;;;5.42;83.93;99015.53;12229504;19;20135;-78
2022/01/31 12:09:03;;;;;;;1.83;0.57;;;;;;;5.25;85.63;99012.63;12235972;19;20046;-78
2022/01/31 12:13:27;;;;;;;3.10;0.85;;;;;;;5.25;86.31;99004.44;12239124;19;20007;-77
2022/01/31 12:18:05;;;;;;;1.55;0.70;;;;;;;5.25;86.90;99013.47;12240239;19;20035;-78
2022/01/31 12:22:11;;;;;;;1.75;0.80;;;;;;;5.17;88.00;99007.50;12239639;19;20031;-78
2022/01/31 12:26:31;;;;;;;4.57;1.08;;;;;;;5.12;88.21;98993.75;12242676;19;20031;-79
2022/01/31 12:30:36;;;;;;;0.73;0.43;;;;;;;5.13;87.87;98977.09;12249209;19;20017;-79
2022/01/31 12:34:42;;;;;;;7.65;1.25;;;;;;;5.22;87.84;98993.97;12238900;19;20460;-78
2022/01/31 12:38:43;;;;;;;1.50;0.70;;;;;;;5.27;86.91;99002.31;12238989;19;20045;-78
2022/01/31 12:42:56;;;;;;;2.85;0.82;;;;;;;5.27;86.40;98974.16;12232033;19;20953;-78
2022/01/31 12:47:11;;;;;;;8.88;1.10;;;;;;;5.19;86.29;98989.00;12224174;19;20073;-79
2022/01/31 12:51:15;;;;;;;5.68;1.17;;;;;;;5.22;86.09;98989.34;12245064;19;20030;-79
2022/01/31 12:55:17;;;;;;;3.40;0.60;;;;;;;5.19;86.70;98983.53;12222005;19;20018;-78
2022/01/31 12:59:19;;;;;;;1.40;0.50;;;;;;;5.28;85.58;98992.22;12230373;19;20026;-78
2022/01/31 13:03:36;;;;;;;14.90;1.67;;;;;;;5.35;84.12;98995.66;12229970;19;20006;-79
2022/01/31 13:07:44;;;;;;;3.28;0.60;;;;;;;5.29;83.44;98994.69;12231911;19;20043;-79
2022/01/31 13:11:52;;;;;;;1.40;0.60;;;;;;;5.46;84.03;99000.31;12231798;19;20046;-79
2022/01/31 13:15:54;;;;;;;3.22;0.73;;;;;;;5.62;81.98;99006.97;12225094;19;20043;-78
2022/01/31 13:19:59;;;;;;;0.80;0.50;;;;;;;5.61;82.51;99017.06;12191802;19;20046;-75
2022/01/31 13:24:00;;;;;;;2.92;0.70;;;;;;;5.65;80.92;99023.75;12200077;19;20073;-79
2022/01/31 13:28:08;;;;;;;2.88;0.73;;;;;;;5.63;81.11;99028.59;12173464;19;20019;-78
2022/01/31 13:32:19;;;;;;;5.32;0.77;;;;;;;5.67;81.91;99026.22;12192532;19;20440;-79
2022/01/31 13:36:21;;;;;;;1.33;0.43;;;;;;;5.77;79.90;99042.88;12230431;19;20018;-77
2022/01/31 13:40:27;;;;;;;4.35;0.60;;;;;;;5.66;80.41;99057.38;12236400;19;20011;-76
2022/01/31 13:44:29;;;;;;;0.63;0.40;;;;;;;5.39;81.88;99065.16;12236030;19;20011;-78
2022/01/31 13:48:56;;;;;;;9.40;0.73;;;;;;;5.23;82.57;99070.25;12247581;19;20498;-77
2022/01/31 13:53:07;;;;;;;17.42;1.13;;;;;;;5.13;83.54;99071.84;12254501;19;20010;-79
2022/01/31 13:57:11;;;;;;;0.65;0.30;;;;;;;5.06;83.88;99076.56;12221202;19;20011;-78
2022/01/31 14:01:22;;;;;;;7.45;1.15;;;;;;;5.08;84.14;99083.47;12207347;19;20015;-78
2022/01/31 14:05:24;;;;;;;2.50;0.35;;;;;;;5.14;82.95;99084.44;12216216;19;20090;-78
2022/01/31 14:09:32;;;;;;;0.20;0.20;;;;;;;5.02;83.06;99093.41;12198456;19;20026;-78
2022/01/31 14:13:40;;;;;;;1.58;0.25;;;;;;;4.99;83.59;99098.50;12210819;19;20330;-78
2022/01/31 14:17:42;;;;;;;1.77;0.57;;;;;;;5.01;82.75;99097.22;12208156;19;20957;-79
2022/01/31 14:21:46;;;;;;;0.28;0.28;;;;;;;5.07;82.76;99083.72;12207378;19;20010;-79
2022/01/31 14:25:49;;;;;;;1.65;0.60;;;;;;;5.05;83.34;99102.22;12219814;19;20019;-83
2022/01/31 14:29:58;;;;;;;1.50;0.50;;;;;;;5.03;83.33;99099.72;12245103;19;20074;-80
2022/01/31 14:34:11;;;;;;;0.60;0.30;;;;;;;4.99;83.58;99118.44;12243272;19;20018;-80
2022/01/31 14:38:24;;;;;;;0.98;0.57;;;;;;;5.03;83.26;99121.56;12247822;19;20342;-80
2022/01/31 14:42:45;;;;;;;1.00;0.50;;;;;;;5.14;82.47;99137.16;12215617;19;20039;-79
2022/01/31 14:51:06;;;;;;;0.85;0.50;;;;;;;5.13;82.26;99123.75;12238947;19;20017;-80
2022/01/31 14:55:16;;;;;;;0.57;0.30;;;;;;;5.12;81.97;99138.47;12230168;19;20086;-78
2022/01/31 14:59:17;;;;;;;0.57;0.30;;;;;;;5.10;82.21;99135.13;12227551;19;20369;-81
2022/01/31 15:03:23;;;;;;;0.60;0.35;;;;;;;5.19;81.34;99150.13;12224261;19;20035;-80
2022/01/31 15:07:26;;;;;;;1.95;0.50;;;;;;;5.09;82.19;99144.41;12240327;19;20010;-79
2022/01/31 15:11:27;;;;;;;1.13;0.40;;;;;;;5.05;82.54;99163.13;12249093;19;20070;-80
2022/01/31 15:15:29;;;;;;;1.23;0.60;;;;;;;5.07;82.81;99176.56;12239153;19;20715;-80
2022/01/31 15:19:32;;;;;;;2.17;0.52;;;;;;;5.13;82.49;99189.28;12233598;19;20011;-79
2022/01/31 15:23:40;;;;;;;2.65;0.50;;;;;;;5.12;82.35;99188.47;12231984;19;20031;-81
2022/01/31 15:27:42;;;;;;;1.10;0.60;;;;;;;5.18;82.02;99190.28;12232967;19;20011;-79
2022/01/31 15:31:44;;;;;;;1.13;0.52;;;;;;;5.16;81.88;99192.38;12230669;19;20039;-79
2022/01/31 15:35:51;;;;;;;0.45;0.45;;;;;;;5.08;82.74;99198.16;12243811;19;20007;-79
2022/01/31 15:39:52;;;;;;;1.83;0.50;;;;;;;5.09;82.37;99209.94;12148418;19;20031;-79
2022/01/31 15:43:57;;;;;;;1.15;0.57;;;;;;;5.10;81.93;99230.72;12238759;19;20007;-80
2022/01/31 15:48:00;;;;;;;0.90;0.28;;;;;;;5.05;82.27;99225.94;12224095;19;20006;-78
2022/01/31 15:52:02;;;;;;;1.42;0.40;;;;;;;5.06;82.37;99224.03;12242472;19;20031;-79
2022/01/31 15:56:04;;;;;;;1.30;0.40;;;;;;;5.07;82.15;99228.44;12243144;19;20390;-78
2022/01/31 16:00:12;;;;;;;1.08;0.43;;;;;;;5.11;82.00;99224.19;12239445;19;20030;-80
2022/01/31 16:04:13;;;;;;;0.88;0.28;;;;;;;5.03;82.56;99242.56;12233274;19;20003;-80
2022/01/31 16:08:15;;;;;;;0.85;0.50;;;;;;;5.05;82.28;99222.38;12219099;19;20011;-79
2022/01/31 16:12:17;;;;;;;1.10;0.40;;;;;;;4.97;82.73;99243.47;12232101;19;20512;-80
2022/01/31 16:16:34;;;;;;;1.02;0.30;;;;;;;4.99;82.63;99238.59;12235222;19;20019;-79
2022/01/31 16:20:36;;;;;;;1.73;0.28;;;;;;;4.96;82.55;99233.59;12235254;19;20010;-80
2022/01/31 16:24:37;;;;;;;2.63;0.50;;;;;;;4.88;82.96;99244.84;12225050;19;20006;-80
2022/01/31 16:28:39;;;;;;;0.70;0.40;;;;;;;4.87;83.18;99243.13;12230629;19;20044;-81
2022/01/31 16:32:41;;;;;;;1.23;0.35;;;;;;;4.85;83.75;99228.91;12225026;19;20014;-79
2022/01/31 16:36:44;;;;;;;2.95;0.40;;;;;;;4.82;83.79;99236.69;12220333;19;20021;-80
2022/01/31 16:40:47;;;;;;;3.13;0.47;;;;;;;4.78;84.21;99234.41;12230993;19;20084;-80
2022/01/31 16:44:50;;;;;;;0.77;0.40;;;;;;;4.81;84.21;99252.25;12227230;19;20048;-79
2022/01/31 16:48:52;;;;;;;1.33;0.30;;;;;;;4.67;84.64;99261.63;12235224;19;20445;-81
2022/01/31 16:52:57;;;;;;;0.20;0.20;;;;;;;4.65;85.15;99264.59;12224892;19;20114;-80
2022/01/31 16:56:58;;;;;;;0.70;0.40;;;;;;;4.61;85.33;99270.69;12223838;19;20011;-80
2022/01/31 17:01:00;;;;;;;0.38;0.20;;;;;;;4.64;85.48;99282.03;12234027;19;20031;-79
2022/01/31 17:05:02;;;;;;;0.57;0.40;;;;;;;4.66;85.39;99296.25;12220526;19;20066;-79
2022/01/31 17:09:04;;;;;;;0.60;0.30;;;;;;;4.59;85.96;99311.03;12227443;19;20002;-80
2022/01/31 17:13:06;;;;;;;1.33;0.60;;;;;;;4.58;85.86;99299.31;12229272;19;20792;-80
2022/01/31 17:17:07;;;;;;;0.63;0.20;;;;;;;4.57;86.08;99308.53;12218310;19;20011;-80
2022/01/31 17:21:09;;;;;;;0.88;0.38;;;;;;;4.59;86.09;99320.06;12234202;19;20010;-81
2022/01/31 17:25:12;;;;;;;0.63;0.40;;;;;;;4.61;86.05;99328.88;12227590;19;20007;-81
2022/01/31 17:29:13;;;;;;;0.60;0.32;;;;;;;4.64;86.38;99324.84;12235694;19;20027;-79
2022/01/31 17:33:16;;;;;;;0.70;0.40;;;;;;;4.64;86.28;99341.22;12235662;19;20035;-81
2022/01/31 17:37:19;;;;;;;0.55;0.40;;;;;;;4.63;86.49;99334.09;12240507;19;20330;-81
2022/01/31 17:41:20;;;;;;;1.38;0.43;;;;;;;4.56;87.00;99345.91;12224933;19;20104;-80
2022/01/31 17:45:24;;;;;;;0.60;0.30;;;;;;;4.52;87.26;99352.88;12230249;19;20073;-81
2022/01/31 17:49:26;;;;;;;0.60;0.32;;;;;;;4.52;87.87;99344.69;12225813;19;20030;-79
2022/01/31 17:53:28;;;;;;;1.10;0.40;;;;;;;4.53;87.79;99365.44;12225241;19;20472;-80
2022/01/31 17:57:30;;;;;;;1.52;0.43;;;;;;;4.47;88.19;99377.25;12238669;19;20014;-80
2022/01/31 18:01:31;;;;;;;0.82;0.32;;;;;;;4.52;88.32;99366.50;12225206;19;20469;-82
2022/01/31 18:05:33;;;;;;;0.95;0.50;;;;;;;4.49;88.61;99385.19;12229313;19;20002;-82
2022/01/31 18:09:35;;;;;;;1.25;0.70;;;;;;;4.56;88.44;99383.25;12232386;19;20036;-81
2022/01/31 18:13:37;;;;;;;1.02;0.30;;;;;;;4.55;88.38;99376.97;12238947;19;20039;-81
2022/01/31 18:17:40;;;;;;;0.65;0.40;;;;;;;4.53;88.74;99381.81;12232301;19;20032;-82
2022/01/31 18:21:42;;;;;;;1.17;0.40;;;;;;;4.52;88.91;99382.88;12237967;19;20714;-81
2022/01/31 18:25:44;;;;;;;0.43;0.30;;;;;;;4.49;89.17;99387.91;12241954;19;20006;-80
2022/01/31 18:29:46;;;;;;;0.98;0.40;;;;;;;4.57;89.00;99404.03;12225703;19;20039;-79
2022/01/31 18:33:50;;;;;;;0.35;0.20;;;;;;;4.57;88.94;99414.94;12233685;19;20003;-81
2022/01/31 18:37:51;;;;;;;1.15;0.47;;;;;;;4.57;88.92;99415.78;12232621;19;20007;-80
2022/01/31 18:41:53;;;;;;;1.40;0.50;;;;;;;4.60;88.64;99416.41;12235768;19;20022;-82
2022/01/31 18:45:56;;;;;;;2.30;0.82;;;;;;;4.63;88.10;99415.97;12226527;19;20019;-81
2022/01/31 18:49:58;;;;;;;1.92;0.70;;;;;;;4.57;88.79;99418.50;12217770;19;20014;-80
2022/01/31 18:54:01;;;;;;;0.50;0.50;;;;;;;4.62;88.82;99441.59;12225875;19;20013;-79
2022/01/31 18:58:04;;;;;;;1.45;0.60;;;;;;;4.63;88.75;99430.44;12222334;19;20043;-80
2022/01/31 19:02:07;;;;;;;;;;;;;;;4.61;88.88;99445.34;12220417;19;20070;-80
2022/01/31 19:06:09;;;;;;;2.13;0.90;;;;;;;4.60;88.42;99454.59;12217302;19;19914;-82
2022/01/31 19:10:15;;;;;;;1.43;0.63;;;;;;;4.62;88.71;99463.41;12225313;19;20039;-78
2022/01/31 19:15:42;;;;;;;1.00;0.60;;;;;;;4.63;88.66;99449.53;12238021;19;20456;-80
2022/01/31 19:18:38;;;;;;;1.10;0.65;;;;;;;4.67;88.40;99471.75;12236679;19;20464;-79
2022/01/31 19:22:40;;;;;;;1.52;0.57;;;;;;;4.66;88.49;99481.84;12226626;19;20006;-80